sensor_id;sensor_type;location;lat;lon;timestamp;pressure;altitude;pressure_sealevel;temperature;humidity
51468;BME280;37545;45.302;-122.946;2023-04-26T00:01:08;101426.44;;;22.63;31.95
51468;BME280;37545;45.302;-122.946;2023-04-26T00:03:37;101429.91;;;22.65;31.76
51468;BME280;37545;45.302;-122.946;2023-04-26T00:06:07;101428.13;;;22.67;32.06
51468;BME280;37545;45.302;-122.946;2023-04-26T00:08:36;101428.13;;;22.67;32.89
51468;BME280;37545;45.302;-122.946;2023-04-26T00:11:06;101417.63;;;22.64;32.58
51468;BME280;37545;45.302;-122.946;2023-04-26T00:13:35;101432.50;;;22.71;32.27
51468;BME280;37545;45.302;-122.946;2023-04-26T00:16:05;101424.59;;;22.71;31.74
51468;BME280;37545;45.302;-122.946;2023-04-26T00:18:33;101438.63;;;22.73;31.72
51468;BME280;37545;45.302;-122.946;2023-04-26T00:21:02;101441.31;;;22.70;31.14
51468;BME280;37545;45.302;-122.946;2023-04-26T00:23:34;101432.59;;;22.61;31.58
51468;BME280;37545;45.302;-122.946;2023-04-26T00:26:05;101433.53;;;22.55;31.14
51468;BME280;37545;45.302;-122.946;2023-04-26T00:28:35;101431.75;;;22.57;31.41
51468;BME280;37545;45.302;-122.946;2023-04-26T00:31:07;101437.00;;;22.60;31.91
51468;BME280;37545;45.302;-122.946;2023-04-26T00:33:41;101428.25;;;22.56;31.39
51468;BME280;37545;45.302;-122.946;2023-04-26T00:36:10;101429.19;;;22.51;32.63
51468;BME280;37545;45.302;-122.946;2023-04-26T00:38:40;101429.25;;;22.43;32.73
51468;BME280;37545;45.302;-122.946;2023-04-26T00:41:11;101431.03;;;22.43;32.67
51468;BME280;37545;45.302;-122.946;2023-04-26T00:43:39;101444.22;;;22.43;33.59
51468;BME280;37545;45.302;-122.946;2023-04-26T00:46:08;101438.94;;;22.43;32.88
51468;BME280;37545;45.302;-122.946;2023-04-26T00:48:38;101433.66;;;22.43;31.86
51468;BME280;37545;45.302;-122.946;2023-04-26T00:51:06;101436.31;;;22.41;32.74
51468;BME280;37545;45.302;-122.946;2023-04-26T00:53:35;101430.16;;;22.37;32.68
51468;BME280;37545;45.302;-122.946;2023-04-26T00:56:06;101426.66;;;22.35;33.64
51468;BME280;37545;45.302;-122.946;2023-04-26T00:58:38;101426.66;;;22.35;33.46
51468;BME280;37545;45.302;-122.946;2023-04-26T01:01:07;101405.59;;;22.32;33.10
51468;BME280;37545;45.302;-122.946;2023-04-26T01:03:36;101409.16;;;22.31;33.21
51468;BME280;37545;45.302;-122.946;2023-04-26T01:06:15;101405.66;;;22.28;33.39
51468;BME280;37545;45.302;-122.946;2023-04-26T01:08:44;101411.81;;;22.27;32.28
51468;BME280;37545;45.302;-122.946;2023-04-26T01:11:27;101406.56;;;22.24;34.18
51468;BME280;37545;45.302;-122.946;2023-04-26T01:13:58;101402.19;;;22.21;34.54
51468;BME280;37545;45.302;-122.946;2023-04-26T01:16:28;101404.81;;;22.20;34.30
51468;BME280;37545;45.302;-122.946;2023-04-26T01:18:57;101404.84;;;22.18;33.58
51468;BME280;37545;45.302;-122.946;2023-04-26T01:21:26;101406.59;;;22.14;34.97
51468;BME280;37545;45.302;-122.946;2023-04-26T01:23:56;101406.66;;;22.07;33.62
51468;BME280;37545;45.302;-122.946;2023-04-26T01:26:25;101406.75;;;21.98;33.40
51468;BME280;37545;45.302;-122.946;2023-04-26T01:28:53;101422.56;;;21.99;32.16
51468;BME280;37545;45.302;-122.946;2023-04-26T01:31:22;101412.06;;;21.87;30.65
51468;BME280;37545;45.302;-122.946;2023-04-26T01:33:51;101423.56;;;21.77;32.29
51468;BME280;37545;45.302;-122.946;2023-04-26T01:36:19;101420.06;;;21.73;33.98
51468;BME280;37545;45.302;-122.946;2023-04-26T01:38:48;101413.06;;;21.69;32.93
51468;BME280;37545;45.302;-122.946;2023-04-26T01:41:18;101411.34;;;21.62;33.70
51468;BME280;37545;45.302;-122.946;2023-04-26T01:43:48;101412.25;;;21.58;33.82
51468;BME280;37545;45.302;-122.946;2023-04-26T01:46:17;101407.03;;;21.50;34.39
51468;BME280;37545;45.302;-122.946;2023-04-26T01:48:45;101405.31;;;21.43;33.36
51468;BME280;37545;45.302;-122.946;2023-04-26T01:51:14;101396.53;;;21.36;33.01
51468;BME280;37545;45.302;-122.946;2023-04-26T01:53:43;101399.19;;;21.30;33.93
51468;BME280;37545;45.302;-122.946;2023-04-26T01:56:11;101400.09;;;21.24;35.36
51468;BME280;37545;45.302;-122.946;2023-04-26T01:58:42;101389.59;;;21.18;34.89
51468;BME280;37545;45.302;-122.946;2023-04-26T02:01:11;101393.16;;;21.12;34.70
51468;BME280;37545;45.302;-122.946;2023-04-26T02:03:40;101387.03;;;21.04;34.80
51468;BME280;37545;45.302;-122.946;2023-04-26T02:06:09;101383.56;;;20.90;34.19
51468;BME280;37545;45.302;-122.946;2023-04-26T02:08:39;101383.59;;;20.81;34.68
51468;BME280;37545;45.302;-122.946;2023-04-26T02:11:08;101375.75;;;20.73;35.38
51468;BME280;37545;45.302;-122.946;2023-04-26T02:13:37;101385.41;;;20.66;35.72
51468;BME280;37545;45.302;-122.946;2023-04-26T02:16:08;101388.91;;;20.59;35.37
51468;BME280;37545;45.302;-122.946;2023-04-26T02:18:36;101387.13;;;20.52;33.83
51468;BME280;37545;45.302;-122.946;2023-04-26T02:21:09;101389.75;;;20.47;33.83
51468;BME280;37545;45.302;-122.946;2023-04-26T02:23:38;101384.50;;;20.43;33.72
51468;BME280;37545;45.302;-122.946;2023-04-26T02:26:07;101392.41;;;20.38;34.77
51468;BME280;37545;45.302;-122.946;2023-04-26T02:28:37;101386.28;;;20.30;34.85
51468;BME280;37545;45.302;-122.946;2023-04-26T02:31:07;101393.28;;;20.22;35.00
51468;BME280;37545;45.302;-122.946;2023-04-26T02:33:36;101385.41;;;20.13;35.36
51468;BME280;37545;45.302;-122.946;2023-04-26T02:36:05;101382.78;;;20.05;35.44
51468;BME280;37545;45.302;-122.946;2023-04-26T02:38:34;101383.63;;;19.95;34.63
51468;BME280;37545;45.302;-122.946;2023-04-26T02:41:04;101379.28;;;19.89;35.67
51468;BME280;37545;45.302;-122.946;2023-04-26T02:43:33;101375.75;;;19.81;34.93
51468;BME280;37545;45.302;-122.946;2023-04-26T02:46:01;101384.47;;;19.72;35.48
51468;BME280;37545;45.302;-122.946;2023-04-26T02:48:32;101388.84;;;19.65;34.81
51468;BME280;37545;45.302;-122.946;2023-04-26T02:51:00;101395.81;;;19.59;34.46
51468;BME280;37545;45.302;-122.946;2023-04-26T02:53:29;101398.41;;;19.50;34.79
51468;BME280;37545;45.302;-122.946;2023-04-26T02:55:58;101394.88;;;19.40;34.43
51468;BME280;37545;45.302;-122.946;2023-04-26T02:58:27;101396.59;;;19.32;34.71
51468;BME280;37545;45.302;-122.946;2023-04-26T03:00:56;101399.19;;;19.22;35.13
51468;BME280;37545;45.302;-122.946;2023-04-26T03:03:25;101406.16;;;19.16;35.10
51468;BME280;37545;45.302;-122.946;2023-04-26T03:05:55;101407.84;;;19.08;35.30
51468;BME280;37545;45.302;-122.946;2023-04-26T03:08:24;101409.56;;;18.98;35.56
51468;BME280;37545;45.302;-122.946;2023-04-26T03:10:53;101417.34;;;18.87;35.75
51468;BME280;37545;45.302;-122.946;2023-04-26T03:13:22;101413.81;;;18.77;36.30
51468;BME280;37545;45.302;-122.946;2023-04-26T03:15:51;101414.59;;;18.66;36.85
51468;BME280;37545;45.302;-122.946;2023-04-26T03:18:20;101410.13;;;18.52;38.02
51468;BME280;37545;45.302;-122.946;2023-04-26T03:20:49;101413.53;;;18.40;38.64
51468;BME280;37545;45.302;-122.946;2023-04-26T03:23:19;101409.03;;;18.27;37.86
51468;BME280;37545;45.302;-122.946;2023-04-26T03:25:49;101410.72;;;18.17;39.08
51468;BME280;37545;45.302;-122.946;2023-04-26T03:28:18;101415.81;;;18.00;39.43
51468;BME280;37545;45.302;-122.946;2023-04-26T03:30:47;101416.56;;;17.87;41.89
51468;BME280;37545;45.302;-122.946;2023-04-26T03:33:17;101419.88;;;17.74;41.84
51468;BME280;37545;45.302;-122.946;2023-04-26T03:35:45;101420.63;;;17.65;42.45
51468;BME280;37545;45.302;-122.946;2023-04-26T03:38:14;101417.06;;;17.57;43.38
51468;BME280;37545;45.302;-122.946;2023-04-26T03:40:45;101429.16;;;17.46;44.79
51468;BME280;37545;45.302;-122.946;2023-04-26T03:43:14;101434.28;;;17.38;43.46
51468;BME280;37545;45.302;-122.946;2023-04-26T03:45:42;101441.16;;;17.31;43.56
51468;BME280;37545;45.302;-122.946;2023-04-26T03:48:14;101441.97;;;17.26;43.30
51468;BME280;37545;45.302;-122.946;2023-04-26T03:50:44;101441.00;;;17.16;43.44
51468;BME280;37545;45.302;-122.946;2023-04-26T03:53:13;101438.31;;;17.11;42.73
51468;BME280;37545;45.302;-122.946;2023-04-26T03:55:42;101445.19;;;17.05;43.41
51468;BME280;37545;45.302;-122.946;2023-04-26T03:58:12;101449.47;;;17.00;42.99
51468;BME280;37545;45.302;-122.946;2023-04-26T04:00:41;101445.88;;;16.91;44.20
51468;BME280;37545;45.302;-122.946;2023-04-26T04:03:10;101449.25;;;16.84;45.07
51468;BME280;37545;45.302;-122.946;2023-04-26T04:05:39;101443.81;;;16.73;45.79
51468;BME280;37545;45.302;-122.946;2023-04-26T04:08:07;101444.50;;;16.62;45.65
51468;BME280;37545;45.302;-122.946;2023-04-26T04:10:36;101448.72;;;16.53;45.03
51468;BME280;37545;45.302;-122.946;2023-04-26T04:13:05;101452.09;;;16.46;44.83
51468;BME280;37545;45.302;-122.946;2023-04-26T04:15:35;101457.19;;;16.39;45.48
51468;BME280;37545;45.302;-122.946;2023-04-26T04:18:04;101459.66;;;16.29;46.15
51468;BME280;37545;45.302;-122.946;2023-04-26T04:20:32;101469.97;;;16.22;45.41
51468;BME280;37545;45.302;-122.946;2023-04-26T04:23:01;101475.91;;;16.15;45.78
51468;BME280;37545;45.302;-122.946;2023-04-26T04:25:31;101475.81;;;16.08;46.57
51468;BME280;37545;45.302;-122.946;2023-04-26T04:28:00;101474.84;;;16.02;46.54
51468;BME280;37545;45.302;-122.946;2023-04-26T04:30:29;101472.97;;;15.95;46.75
51468;BME280;37545;45.302;-122.946;2023-04-26T04:32:59;101476.31;;;15.89;46.71
51468;BME280;37545;45.302;-122.946;2023-04-26T04:35:30;101482.22;;;15.80;46.96
51468;BME280;37545;45.302;-122.946;2023-04-26T04:37:59;101477.75;;;15.73;48.17
51468;BME280;37545;45.302;-122.946;2023-04-26T04:40:28;101471.44;;;15.63;48.29
51468;BME280;37545;45.302;-122.946;2023-04-26T04:42:57;101480.00;;;15.56;48.75
51468;BME280;37545;45.302;-122.946;2023-04-26T04:45:26;101477.25;;;15.50;48.97
51468;BME280;37545;45.302;-122.946;2023-04-26T04:47:55;101478.84;;;15.43;50.21
51468;BME280;37545;45.302;-122.946;2023-04-26T04:50:26;101483.88;;;15.34;50.13
51468;BME280;37545;45.302;-122.946;2023-04-26T04:52:55;101484.59;;;15.27;51.54
51468;BME280;37545;45.302;-122.946;2023-04-26T04:55:23;101492.25;;;15.19;52.32
51468;BME280;37545;45.302;-122.946;2023-04-26T04:57:52;101483.34;;;15.11;53.15
51468;BME280;37545;45.302;-122.946;2023-04-26T05:00:21;101488.47;;;15.05;53.90
51468;BME280;37545;45.302;-122.946;2023-04-26T05:02:50;101484.72;;;14.95;54.90
51468;BME280;37545;45.302;-122.946;2023-04-26T05:05:19;101488.00;;;14.86;54.67
51468;BME280;37545;45.302;-122.946;2023-04-26T05:07:50;101482.66;;;14.80;54.47
51468;BME280;37545;45.302;-122.946;2023-04-26T05:10:19;101479.94;;;14.76;55.25
51468;BME280;37545;45.302;-122.946;2023-04-26T05:12:48;101485.88;;;14.70;55.34
51468;BME280;37545;45.302;-122.946;2023-04-26T05:15:16;101488.34;;;14.64;55.69
51468;BME280;37545;45.302;-122.946;2023-04-26T05:17:45;101489.88;;;14.56;55.76
51468;BME280;37545;45.302;-122.946;2023-04-26T05:20:14;101493.13;;;14.49;56.87
51468;BME280;37545;45.302;-122.946;2023-04-26T05:22:43;101489.44;;;14.40;56.94
51468;BME280;37545;45.302;-122.946;2023-04-26T05:25:14;101488.44;;;14.35;57.88
51468;BME280;37545;45.302;-122.946;2023-04-26T05:27:42;101488.28;;;14.29;58.16
51468;BME280;37545;45.302;-122.946;2023-04-26T05:30:12;101492.53;;;14.25;57.98
51468;BME280;37545;45.302;-122.946;2023-04-26T05:32:41;101491.56;;;14.20;58.46
51468;BME280;37545;45.302;-122.946;2023-04-26T05:35:11;101487.03;;;14.13;58.90
51468;BME280;37545;45.302;-122.946;2023-04-26T05:37:39;101485.94;;;14.05;59.44
51468;BME280;37545;45.302;-122.946;2023-04-26T05:40:09;101486.63;;;13.99;59.42
51468;BME280;37545;45.302;-122.946;2023-04-26T05:42:39;101483.78;;;13.90;60.65
51468;BME280;37545;45.302;-122.946;2023-04-26T05:45:09;101479.19;;;13.80;62.20
51468;BME280;37545;45.302;-122.946;2023-04-26T05:47:37;101472.78;;;13.69;62.43
51468;BME280;37545;45.302;-122.946;2023-04-26T05:50:07;101477.84;;;13.64;63.52
51468;BME280;37545;45.302;-122.946;2023-04-26T05:52:36;101478.66;;;13.61;64.50
51468;BME280;37545;45.302;-122.946;2023-04-26T05:55:05;101471.69;;;13.60;63.39
51468;BME280;37545;45.302;-122.946;2023-04-26T05:57:34;101482.06;;;13.60;63.90
51468;BME280;37545;45.302;-122.946;2023-04-26T06:00:08;101481.19;;;13.58;62.84
51468;BME280;37545;45.302;-122.946;2023-04-26T06:02:37;101477.66;;;13.56;63.07
51468;BME280;37545;45.302;-122.946;2023-04-26T06:05:07;101477.53;;;13.53;62.43
51468;BME280;37545;45.302;-122.946;2023-04-26T06:07:36;101473.19;;;13.52;61.95
51468;BME280;37545;45.302;-122.946;2023-04-26T06:10:05;101480.94;;;13.51;62.24
51468;BME280;37545;45.302;-122.946;2023-04-26T06:12:34;101477.38;;;13.47;61.69
51468;BME280;37545;45.302;-122.946;2023-04-26T06:15:03;101473.00;;;13.46;61.39
51468;BME280;37545;45.302;-122.946;2023-04-26T06:17:33;101473.00;;;13.46;61.23
51468;BME280;37545;45.302;-122.946;2023-04-26T06:20:02;101477.38;;;13.47;61.92
51468;BME280;37545;45.302;-122.946;2023-04-26T06:22:32;101474.88;;;13.50;61.04
51468;BME280;37545;45.302;-122.946;2023-04-26T06:25:00;101472.34;;;13.53;60.59
51468;BME280;37545;45.302;-122.946;2023-04-26T06:27:30;101475.06;;;13.58;61.57
51468;BME280;37545;45.302;-122.946;2023-04-26T06:29:59;101472.59;;;13.61;61.22
51468;BME280;37545;45.302;-122.946;2023-04-26T06:32:28;101463.97;;;13.64;60.96
51468;BME280;37545;45.302;-122.946;2023-04-26T06:34:58;101469.25;;;13.67;61.24
51468;BME280;37545;45.302;-122.946;2023-04-26T06:37:28;101471.94;;;13.70;61.38
51468;BME280;37545;45.302;-122.946;2023-04-26T06:39:56;101475.56;;;13.75;60.48
51468;BME280;37545;45.302;-122.946;2023-04-26T06:42:25;101479.97;;;13.77;60.77
51468;BME280;37545;45.302;-122.946;2023-04-26T06:44:54;101474.81;;;13.79;61.39
51468;BME280;37545;45.302;-122.946;2023-04-26T06:47:23;101470.44;;;13.78;61.02
51468;BME280;37545;45.302;-122.946;2023-04-26T06:49:52;101474.97;;;13.85;61.81
51468;BME280;37545;45.302;-122.946;2023-04-26T06:52:23;101479.34;;;13.86;61.63
51468;BME280;37545;45.302;-122.946;2023-04-26T06:54:52;101490.69;;;13.88;61.29
51468;BME280;37545;45.302;-122.946;2023-04-26T06:57:21;101492.44;;;13.89;61.23
51468;BME280;37545;45.302;-122.946;2023-04-26T06:59:49;101495.91;;;13.90;61.15
51468;BME280;37545;45.302;-122.946;2023-04-26T07:02:18;101487.28;;;13.91;61.85
51468;BME280;37545;45.302;-122.946;2023-04-26T07:04:48;101490.75;;;13.91;61.97
51468;BME280;37545;45.302;-122.946;2023-04-26T07:07:17;101492.50;;;13.92;62.27
51468;BME280;37545;45.302;-122.946;2023-04-26T07:09:48;101489.91;;;13.92;61.59
51468;BME280;37545;45.302;-122.946;2023-04-26T07:12:16;101495.09;;;13.92;61.48
51468;BME280;37545;45.302;-122.946;2023-04-26T07:14:45;101484.69;;;13.91;61.40
51468;BME280;37545;45.302;-122.946;2023-04-26T07:17:14;101487.31;;;13.92;61.48
51468;BME280;37545;45.302;-122.946;2023-04-26T07:19:42;101484.69;;;13.92;61.73
51468;BME280;37545;45.302;-122.946;2023-04-26T07:22:11;101475.97;;;13.90;62.00
51468;BME280;37545;45.302;-122.946;2023-04-26T07:24:40;101479.47;;;13.91;61.66
51468;BME280;37545;45.302;-122.946;2023-04-26T07:27:10;101481.19;;;13.90;61.20
51468;BME280;37545;45.302;-122.946;2023-04-26T07:29:39;101481.19;;;13.90;61.44
51468;BME280;37545;45.302;-122.946;2023-04-26T07:32:07;101484.63;;;13.89;61.72
51468;BME280;37545;45.302;-122.946;2023-04-26T07:34:36;101489.84;;;13.89;62.53
51468;BME280;37545;45.302;-122.946;2023-04-26T07:37:05;101485.47;;;13.88;61.60
51468;BME280;37545;45.302;-122.946;2023-04-26T07:39:34;101494.16;;;13.89;61.96
51468;BME280;37545;45.302;-122.946;2023-04-26T07:42:05;101490.63;;;13.87;62.58
51468;BME280;37545;45.302;-122.946;2023-04-26T07:44:35;101482.66;;;13.80;62.33
51468;BME280;37545;45.302;-122.946;2023-04-26T07:47:04;101484.38;;;13.80;62.88
51468;BME280;37545;45.302;-122.946;2023-04-26T07:49:33;101482.53;;;13.76;62.85
51468;BME280;37545;45.302;-122.946;2023-04-26T07:52:01;101475.47;;;13.72;63.33
51468;BME280;37545;45.302;-122.946;2023-04-26T07:54:30;101485.72;;;13.66;63.43
51468;BME280;37545;45.302;-122.946;2023-04-26T07:56:59;101470.00;;;13.62;63.67
51468;BME280;37545;45.302;-122.946;2023-04-26T07:59:28;101475.13;;;13.59;63.77
51468;BME280;37545;45.302;-122.946;2023-04-26T08:01:58;101476.81;;;13.57;63.48
51468;BME280;37545;45.302;-122.946;2023-04-26T08:04:30;101477.59;;;13.55;62.95
51468;BME280;37545;45.302;-122.946;2023-04-26T08:07:00;101481.06;;;13.55;62.95
51468;BME280;37545;45.302;-122.946;2023-04-26T08:09:29;101486.28;;;13.55;62.72
51468;BME280;37545;45.302;-122.946;2023-04-26T08:11:58;101482.78;;;13.55;62.87
51468;BME280;37545;45.302;-122.946;2023-04-26T08:14:26;101480.19;;;13.55;62.26
51468;BME280;37545;45.302;-122.946;2023-04-26T08:16:58;101481.06;;;13.54;62.63
51468;BME280;37545;45.302;-122.946;2023-04-26T08:19:27;101479.28;;;13.53;62.79
51468;BME280;37545;45.302;-122.946;2023-04-26T08:21:58;101476.63;;;13.51;63.17
51468;BME280;37545;45.302;-122.946;2023-04-26T08:24:26;101480.06;;;13.50;63.59
51468;BME280;37545;45.302;-122.946;2023-04-26T08:26:55;101470.41;;;13.46;63.48
51468;BME280;37545;45.302;-122.946;2023-04-26T08:29:28;101479.00;;;13.44;63.82
51468;BME280;37545;45.302;-122.946;2023-04-26T08:31:58;101478.03;;;13.40;63.99
51468;BME280;37545;45.302;-122.946;2023-04-26T08:34:27;101481.38;;;13.36;64.15
51468;BME280;37545;45.302;-122.946;2023-04-26T08:36:55;101476.94;;;13.32;64.03
51468;BME280;37545;45.302;-122.946;2023-04-26T08:39:24;101469.03;;;13.29;64.39
51468;BME280;37545;45.302;-122.946;2023-04-26T08:41:53;101461.09;;;13.24;64.78
51468;BME280;37545;45.302;-122.946;2023-04-26T08:44:23;101463.63;;;13.23;65.89
51468;BME280;37545;45.302;-122.946;2023-04-26T08:47:02;101458.22;;;13.16;65.30
51468;BME280;37545;45.302;-122.946;2023-04-26T08:49:39;101458.16;;;13.13;66.19
51468;BME280;37545;45.302;-122.946;2023-04-26T08:52:09;101456.34;;;13.11;65.55
51468;BME280;37545;45.302;-122.946;2023-04-26T08:54:39;101455.41;;;13.09;65.73
51468;BME280;37545;45.302;-122.946;2023-04-26T08:57:08;101451.09;;;13.09;64.92
51468;BME280;37545;45.302;-122.946;2023-04-26T08:59:38;101452.75;;;13.07;65.73
51468;BME280;37545;45.302;-122.946;2023-04-26T09:02:10;101456.19;;;13.06;66.00
51468;BME280;37545;45.302;-122.946;2023-04-26T09:04:40;101460.47;;;13.04;65.51
51468;BME280;37545;45.302;-122.946;2023-04-26T09:07:09;101463.84;;;13.02;66.36
51468;BME280;37545;45.302;-122.946;2023-04-26T09:09:48;101464.66;;;12.99;65.85
51468;BME280;37545;45.302;-122.946;2023-04-26T09:12:18;101466.19;;;12.94;66.56
51468;BME280;37545;45.302;-122.946;2023-04-26T09:14:48;101464.38;;;12.90;66.03
51468;BME280;37545;45.302;-122.946;2023-04-26T09:17:29;101464.22;;;12.85;66.50
51468;BME280;37545;45.302;-122.946;2023-04-26T09:19:59;101466.75;;;12.84;67.08
51468;BME280;37545;45.302;-122.946;2023-04-26T09:22:32;101464.06;;;12.81;66.52
51468;BME280;37545;45.302;-122.946;2023-04-26T09:25:01;101458.75;;;12.77;66.34
51468;BME280;37545;45.302;-122.946;2023-04-26T09:27:34;101457.81;;;12.75;67.03
51468;BME280;37545;45.302;-122.946;2023-04-26T09:30:06;101452.63;;;12.75;67.10
51468;BME280;37545;45.302;-122.946;2023-04-26T09:32:49;101440.41;;;12.71;67.88
51468;BME280;37545;45.302;-122.946;2023-04-26T09:35:30;101434.28;;;12.69;67.04
51468;BME280;37545;45.302;-122.946;2023-04-26T09:38:00;101429.88;;;12.67;67.38
51468;BME280;37545;45.302;-122.946;2023-04-26T09:40:30;101428.88;;;12.63;67.30
51468;BME280;37545;45.302;-122.946;2023-04-26T09:43:01;101420.88;;;12.55;67.97
51468;BME280;37545;45.302;-122.946;2023-04-26T09:45:31;101433.06;;;12.58;67.90
51468;BME280;37545;45.302;-122.946;2023-04-26T09:48:16;101427.09;;;12.61;67.07
51468;BME280;37545;45.302;-122.946;2023-04-26T09:50:47;101426.22;;;12.62;66.53
51468;BME280;37545;45.302;-122.946;2023-04-26T09:53:30;101434.88;;;12.61;67.79
51468;BME280;37545;45.302;-122.946;2023-04-26T09:56:06;101426.06;;;12.55;67.04
51468;BME280;37545;45.302;-122.946;2023-04-26T09:58:37;101427.72;;;12.53;66.98
51468;BME280;37545;45.302;-122.946;2023-04-26T10:01:07;101426.72;;;12.50;67.45
51468;BME280;37545;45.302;-122.946;2023-04-26T10:03:37;101431.81;;;12.47;67.31
51468;BME280;37545;45.302;-122.946;2023-04-26T10:06:07;101429.22;;;12.47;67.73
51468;BME280;37545;45.302;-122.946;2023-04-26T10:08:36;101437.91;;;12.47;67.36
51468;BME280;37545;45.302;-122.946;2023-04-26T10:11:05;101430.91;;;12.45;67.60
51468;BME280;37545;45.302;-122.946;2023-04-26T10:13:35;101435.22;;;12.44;68.38
51468;BME280;37545;45.302;-122.946;2023-04-26T10:16:05;101431.63;;;12.41;67.72
51468;BME280;37545;45.302;-122.946;2023-04-26T10:18:37;101434.22;;;12.41;68.90
51468;BME280;37545;45.302;-122.946;2023-04-26T10:21:09;101431.47;;;12.36;68.32
51468;BME280;37545;45.302;-122.946;2023-04-26T10:23:40;101427.69;;;12.26;68.51
51468;BME280;37545;45.302;-122.946;2023-04-26T10:26:48;101439.94;;;12.30;69.56
51468;BME280;37545;45.302;-122.946;2023-04-26T10:29:18;101445.13;;;12.30;67.93
51468;BME280;37545;45.302;-122.946;2023-04-26T10:32:09;101439.16;;;12.33;70.02
51468;BME280;37545;45.302;-122.946;2023-04-26T10:34:44;101444.28;;;12.31;70.40
51468;BME280;37545;45.302;-122.946;2023-04-26T10:37:32;101439.00;;;12.28;70.19
51468;BME280;37545;45.302;-122.946;2023-04-26T10:40:21;101431.16;;;12.27;69.38
51468;BME280;37545;45.302;-122.946;2023-04-26T10:42:51;101414.66;;;12.25;69.46
51468;BME280;37545;45.302;-122.946;2023-04-26T10:45:41;101418.97;;;12.24;70.76
51468;BME280;37545;45.302;-122.946;2023-04-26T10:48:14;101412.78;;;12.21;70.98
51468;BME280;37545;45.302;-122.946;2023-04-26T10:51:08;101410.16;;;12.19;68.21
51468;BME280;37545;45.302;-122.946;2023-04-26T10:53:59;101414.56;;;12.22;68.80
51468;BME280;37545;45.302;-122.946;2023-04-26T10:56:50;101418.97;;;12.24;67.83
51468;BME280;37545;45.302;-122.946;2023-04-26T10:59:20;101425.75;;;12.21;69.57
51468;BME280;37545;45.302;-122.946;2023-04-26T11:01:50;101427.31;;;12.15;69.40
51468;BME280;37545;45.302;-122.946;2023-04-26T11:04:19;101431.53;;;12.12;69.42
51468;BME280;37545;45.302;-122.946;2023-04-26T11:06:51;101434.78;;;12.06;68.83
51468;BME280;37545;45.302;-122.946;2023-04-26T11:09:39;101441.47;;;12.00;69.60
51468;BME280;37545;45.302;-122.946;2023-04-26T11:12:11;101444.69;;;11.92;70.68
51468;BME280;37545;45.302;-122.946;2023-04-26T11:14:41;101431.38;;;11.83;70.70
51468;BME280;37545;45.302;-122.946;2023-04-26T11:17:11;101433.75;;;11.77;71.61
51468;BME280;37545;45.302;-122.946;2023-04-26T11:19:41;101446.53;;;11.72;70.99
51468;BME280;37545;45.302;-122.946;2023-04-26T11:22:12;101449.03;;;11.69;71.15
51468;BME280;37545;45.302;-122.946;2023-04-26T11:24:42;101452.41;;;11.67;70.91
51468;BME280;37545;45.302;-122.946;2023-04-26T11:27:11;101432.38;;;11.63;71.92
51468;BME280;37545;45.302;-122.946;2023-04-26T11:29:40;101430.47;;;11.57;71.74
51468;BME280;37545;45.302;-122.946;2023-04-26T11:32:08;101426.97;;;11.57;70.84
51468;BME280;37545;45.302;-122.946;2023-04-26T11:34:38;101428.66;;;11.55;71.34
51468;BME280;37545;45.302;-122.946;2023-04-26T11:37:07;101438.06;;;11.52;71.87
51468;BME280;37545;45.302;-122.946;2023-04-26T11:39:38;101430.06;;;11.46;72.19
51468;BME280;37545;45.302;-122.946;2023-04-26T11:42:07;101430.56;;;11.36;72.39
51468;BME280;37545;45.302;-122.946;2023-04-26T11:44:36;101413.94;;;11.31;72.45
51468;BME280;37545;45.302;-122.946;2023-04-26T11:47:06;101409.28;;;11.22;72.54
51468;BME280;37545;45.302;-122.946;2023-04-26T11:49:36;101431.28;;;11.32;73.50
51468;BME280;37545;45.302;-122.946;2023-04-26T11:52:11;101415.72;;;11.32;71.79
51468;BME280;37545;45.302;-122.946;2023-04-26T11:54:42;101405.34;;;11.32;73.10
51468;BME280;37545;45.302;-122.946;2023-04-26T11:57:14;101401.69;;;11.27;72.81
51468;BME280;37545;45.302;-122.946;2023-04-26T11:59:43;101406.84;;;11.25;72.77
51468;BME280;37545;45.302;-122.946;2023-04-26T12:02:12;101419.81;;;11.27;72.49
51468;BME280;37545;45.302;-122.946;2023-04-26T12:04:40;101415.59;;;11.29;72.13
51468;BME280;37545;45.302;-122.946;2023-04-26T12:07:09;101422.56;;;11.30;72.07
51468;BME280;37545;45.302;-122.946;2023-04-26T12:09:42;101422.41;;;11.27;73.15
51468;BME280;37545;45.302;-122.946;2023-04-26T12:12:10;101430.16;;;11.25;72.47
51468;BME280;37545;45.302;-122.946;2023-04-26T12:14:39;101434.31;;;11.22;72.60
51468;BME280;37545;45.302;-122.946;2023-04-26T12:17:08;101435.88;;;11.17;72.92
51468;BME280;37545;45.302;-122.946;2023-04-26T12:19:38;101428.78;;;11.13;72.99
51468;BME280;37545;45.302;-122.946;2023-04-26T12:22:08;101438.19;;;11.09;72.76
51468;BME280;37545;45.302;-122.946;2023-04-26T12:24:36;101436.38;;;11.08;72.98
51468;BME280;37545;45.302;-122.946;2023-04-26T12:27:07;101436.38;;;11.08;73.60
51468;BME280;37545;45.302;-122.946;2023-04-26T12:29:35;101430.25;;;11.06;73.48
51468;BME280;37545;45.302;-122.946;2023-04-26T12:32:04;101418.78;;;10.99;74.86
51468;BME280;37545;45.302;-122.946;2023-04-26T12:34:33;101415.97;;;10.93;75.54
51468;BME280;37545;45.302;-122.946;2023-04-26T12:37:03;101399.38;;;10.88;74.66